RYR9PX LEZL-LPPT
Flight info
| Callsign | RYR9PX |
|---|---|
| Flight time | N/A |
| Altitude | 34000 |
| Route | ONUBA3G ONUBA DCT NAPES DCT OSLEP DCT MINTA DCT VATZI VATZI3B |
| Aircraft | B738/M-SDE2E3FGHIRWXY/LB1 |
Departure
| Time | 2026-04-22 17:27 |
|---|---|
| Airport | Seville Airport (LEZL) |
Arrival
| Time | N/A |
|---|---|
| Airport | Lisbon Humberto Delgado Airport (LPPT) |
| Time | Latitude | Longitude | Altitude | Speed | Heading |
|---|---|---|---|---|---|
| 2026-04-22 17:12 | 37.42075 | -5.90355 | 94 ft | 0 kts | 270° |
| 2026-04-22 17:20 | 37.42075 | -5.90367 | 95 ft | 3 kts | 270° |
| 2026-04-22 17:20 | 37.42039 | -5.90418 | 93 ft | 5 kts | 178° |
| 2026-04-22 17:21 | 37.41991 | -5.90409 | 94 ft | 8 kts | 150° |
| 2026-04-22 17:21 | 37.41983 | -5.90256 | 95 ft | 12 kts | 90° |
| 2026-04-22 17:22 | 37.41983 | -5.90003 | 93 ft | 18 kts | 90° |
| 2026-04-22 17:22 | 37.41981 | -5.89845 | 92 ft | 18 kts | 91° |
| 2026-04-22 17:22 | 37.41980 | -5.89536 | 91 ft | 17 kts | 90° |
| 2026-04-22 17:23 | 37.41980 | -5.89371 | 91 ft | 22 kts | 90° |
| 2026-04-22 17:23 | 37.41982 | -5.88985 | 98 ft | 22 kts | 89° |
| 2026-04-22 17:23 | 37.41984 | -5.88799 | 104 ft | 21 kts | 90° |
| 2026-04-22 17:24 | 37.41985 | -5.88618 | 105 ft | 20 kts | 89° |
| 2026-04-22 17:24 | 37.41985 | -5.88443 | 106 ft | 20 kts | 90° |
| 2026-04-22 17:24 | 37.41985 | -5.88271 | 108 ft | 19 kts | 90° |
| 2026-04-22 17:24 | 37.41985 | -5.88103 | 107 ft | 20 kts | 90° |
| 2026-04-22 17:25 | 37.41986 | -5.87927 | 104 ft | 20 kts | 90° |
| 2026-04-22 17:25 | 37.41987 | -5.87755 | 105 ft | 20 kts | 89° |
| 2026-04-22 17:25 | 37.41986 | -5.87587 | 105 ft | 19 kts | 92° |
| 2026-04-22 17:25 | 37.41935 | -5.87447 | 105 ft | 18 kts | 150° |
| 2026-04-22 17:26 | 37.41819 | -5.87468 | 108 ft | 18 kts | 216° |
| 2026-04-22 17:26 | 37.41800 | -5.87518 | 108 ft | 2 kts | 269° |
| 2026-04-22 17:26 | 37.41800 | -5.87719 | 105 ft | 61 kts | 270° |
| 2026-04-22 17:26 | 37.41798 | -5.88594 | 105 ft | 137 kts | 270° |
| 2026-04-22 17:27 | 37.41801 | -5.89515 | 242 ft | 166 kts | 270° |
| 2026-04-22 17:27 | 37.41841 | -5.91446 | 1430 ft | 166 kts | 270° |
| 2026-04-22 17:27 | 37.41901 | -5.92864 | 2413 ft | 166 kts | 285° |
| 2026-04-22 17:27 | 37.42648 | -5.93968 | 3210 ft | 170 kts | 324° |
| 2026-04-22 17:28 | 37.43538 | -5.95010 | 3794 ft | 188 kts | 300° |
| 2026-04-22 17:28 | 37.43853 | -5.96704 | 4075 ft | 214 kts | 268° |
| 2026-04-22 17:28 | 37.43910 | -5.98694 | 4370 ft | 239 kts | 271° |
| 2026-04-22 17:28 | 37.44039 | -6.00864 | 4799 ft | 262 kts | 271° |
| 2026-04-22 17:29 | 37.44193 | -6.03203 | 5567 ft | 270 kts | 271° |
| 2026-04-22 17:29 | 37.44354 | -6.05553 | 6584 ft | 270 kts | 270° |
| 2026-04-22 17:29 | 37.44508 | -6.07908 | 7520 ft | 269 kts | 267° |
| 2026-04-22 17:29 | 37.44189 | -6.10184 | 8408 ft | 265 kts | 244° |
| 2026-04-22 17:30 | 37.43282 | -6.12197 | 9290 ft | 265 kts | 231° |
| 2026-04-22 17:30 | 37.41968 | -6.13816 | 10153 ft | 267 kts | 216° |
| 2026-04-22 17:30 | 37.40386 | -6.15200 | 10517 ft | 290 kts | 214° |
| 2026-04-22 17:30 | 37.39242 | -6.16153 | 10660 ft | 306 kts | 213° |
| 2026-04-22 17:31 | 37.36785 | -6.18157 | 11441 ft | 320 kts | 213° |
| 2026-04-22 17:31 | 37.35582 | -6.19235 | 11949 ft | 322 kts | 221° |
| 2026-04-22 17:31 | 37.34204 | -6.21460 | 12767 ft | 326 kts | 239° |
| 2026-04-22 17:31 | 37.33375 | -6.24136 | 13566 ft | 333 kts | 253° |
| 2026-04-22 17:32 | 37.32865 | -6.26998 | 14259 ft | 338 kts | 255° |
| 2026-04-22 17:32 | 37.32400 | -6.29916 | 14949 ft | 342 kts | 256° |
| 2026-04-22 17:32 | 37.31933 | -6.32863 | 15656 ft | 345 kts | 256° |
| 2026-04-22 17:32 | 37.31450 | -6.35831 | 16347 ft | 349 kts | 256° |
| 2026-04-22 17:33 | 37.30947 | -6.38833 | 17028 ft | 353 kts | 256° |
| 2026-04-22 17:33 | 37.30432 | -6.41858 | 17714 ft | 356 kts | 256° |
| 2026-04-22 17:33 | 37.29908 | -6.44914 | 18380 ft | 359 kts | 256° |
| 2026-04-22 17:33 | 37.29388 | -6.47981 | 19022 ft | 361 kts | 256° |
| 2026-04-22 17:34 | 37.28870 | -6.51084 | 19602 ft | 364 kts | 256° |
| 2026-04-22 17:34 | 37.28350 | -6.54211 | 20202 ft | 368 kts | 256° |
| 2026-04-22 17:34 | 37.27825 | -6.57365 | 20787 ft | 370 kts | 256° |
| 2026-04-22 17:34 | 37.27295 | -6.60545 | 21366 ft | 373 kts | 256° |
| 2026-04-22 17:35 | 37.26758 | -6.63750 | 21923 ft | 377 kts | 256° |
| 2026-04-22 17:35 | 37.26218 | -6.66977 | 22481 ft | 380 kts | 256° |
| 2026-04-22 17:35 | 37.25677 | -6.70195 | 23019 ft | 383 kts | 256° |
| 2026-04-22 17:35 | 37.25125 | -6.73477 | 23552 ft | 386 kts | 256° |
| 2026-04-22 17:36 | 37.24563 | -6.76785 | 24008 ft | 389 kts | 255° |
| 2026-04-22 17:36 | 37.23958 | -6.80097 | 24488 ft | 390 kts | 255° |
| 2026-04-22 17:36 | 37.23326 | -6.83416 | 24953 ft | 392 kts | 255° |
| 2026-04-22 17:36 | 37.22686 | -6.86756 | 25416 ft | 395 kts | 255° |
| 2026-04-22 17:37 | 37.22043 | -6.90117 | 25848 ft | 397 kts | 255° |
| 2026-04-22 17:37 | 37.21400 | -6.93499 | 26272 ft | 400 kts | 255° |
| 2026-04-22 17:37 | 37.20757 | -6.96898 | 26690 ft | 402 kts | 255° |
| 2026-04-22 17:37 | 37.20108 | -7.00319 | 27123 ft | 404 kts | 255° |
| 2026-04-22 17:38 | 37.19455 | -7.03757 | 27530 ft | 406 kts | 255° |
| 2026-04-22 17:38 | 37.18796 | -7.07209 | 27923 ft | 408 kts | 255° |
| 2026-04-22 17:38 | 37.18132 | -7.10681 | 28338 ft | 410 kts | 255° |
| 2026-04-22 17:38 | 37.17468 | -7.14151 | 28884 ft | 408 kts | 255° |
| 2026-04-22 17:39 | 37.16808 | -7.17592 | 29503 ft | 404 kts | 255° |
| 2026-04-22 17:39 | 37.16155 | -7.21011 | 30071 ft | 402 kts | 255° |
| 2026-04-22 17:39 | 37.14878 | -7.27816 | 30958 ft | 400 kts | 255° |
| 2026-04-22 17:40 | 37.14242 | -7.31196 | 31403 ft | 398 kts | 255° |
| 2026-04-22 17:40 | 37.13680 | -7.34587 | 31816 ft | 398 kts | 262° |
| 2026-04-22 17:40 | 37.13640 | -7.38067 | 32224 ft | 400 kts | 272° |
| 2026-04-22 17:40 | 37.14040 | -7.41518 | 32666 ft | 401 kts | 280° |
| 2026-04-22 17:41 | 37.14909 | -7.44854 | 33074 ft | 404 kts | 288° |
| 2026-04-22 17:41 | 37.15960 | -7.48110 | 33467 ft | 403 kts | 289° |
| 2026-04-22 17:41 | 37.17039 | -7.51351 | 33842 ft | 403 kts | 289° |
| 2026-04-22 17:41 | 37.18125 | -7.54608 | 33945 ft | 408 kts | 289° |
| 2026-04-22 17:42 | 37.19214 | -7.57899 | 33958 ft | 409 kts | 289° |
| 2026-04-22 17:42 | 37.21357 | -7.64451 | 33956 ft | 402 kts | 288° |
| 2026-04-22 17:43 | 37.23450 | -7.70928 | 33975 ft | 400 kts | 288° |
| 2026-04-22 17:43 | 37.25518 | -7.77370 | 33969 ft | 401 kts | 288° |